Terminal Aerodrome Forecast
Issued by NWS

Home | Current Version | Previous Version | Graphics & Text | Print | Product List | Glossary On
Versions: 1 2 3 4 5 6 7 8 9 10 11 12 13 14 15
000
FTUS43 KMPX 191400 AAA
TAFAXN
TAF AMD
KAXN 191425Z 1914/2012 15010KT 2SM BR OVC002
     FM191700 16010KT 5SM BR OVC007
     FM200300 17007KT 3SM BR OVC004=

USA.gov is the U.S. government's official web portal to all federal, state and local government web resources and services.